sensor_id;sensor_type;location;lat;lon;timestamp;temperature;humidity
56374;DHT22;58212;47.034;7.376;2022-11-15T00:01:57;8.30;99.90
56374;DHT22;58212;47.034;7.376;2022-11-15T00:04:44;8.30;99.90
56374;DHT22;58212;47.034;7.376;2022-11-15T00:07:30;8.30;99.90
56374;DHT22;58212;47.034;7.376;2022-11-15T00:10:16;8.30;99.90
56374;DHT22;58212;47.034;7.376;2022-11-15T00:13:04;8.30;99.90
56374;DHT22;58212;47.034;7.376;2022-11-15T00:15:51;8.30;99.90
56374;DHT22;58212;47.034;7.376;2022-11-15T00:18:38;8.40;99.90
56374;DHT22;58212;47.034;7.376;2022-11-15T00:21:25;8.40;99.90
56374;DHT22;58212;47.034;7.376;2022-11-15T00:24:11;8.30;99.90
56374;DHT22;58212;47.034;7.376;2022-11-15T00:26:58;8.30;99.90
56374;DHT22;58212;47.034;7.376;2022-11-15T00:29:44;8.30;99.90
56374;DHT22;58212;47.034;7.376;2022-11-15T00:32:31;8.30;99.90
56374;DHT22;58212;47.034;7.376;2022-11-15T00:35:17;8.30;99.90
56374;DHT22;58212;47.034;7.376;2022-11-15T00:38:05;8.40;99.90
56374;DHT22;58212;47.034;7.376;2022-11-15T00:40:51;8.40;99.90
56374;DHT22;58212;47.034;7.376;2022-11-15T00:43:37;8.40;99.90
56374;DHT22;58212;47.034;7.376;2022-11-15T00:46:25;8.40;99.90
56374;DHT22;58212;47.034;7.376;2022-11-15T00:49:10;8.50;99.90
56374;DHT22;58212;47.034;7.376;2022-11-15T00:51:56;8.50;99.90
56374;DHT22;58212;47.034;7.376;2022-11-15T00:54:43;8.50;99.90
56374;DHT22;58212;47.034;7.376;2022-11-15T00:57:28;8.60;99.90
56374;DHT22;58212;47.034;7.376;2022-11-15T01:00:15;8.50;99.90
56374;DHT22;58212;47.034;7.376;2022-11-15T01:03:01;8.50;99.90
56374;DHT22;58212;47.034;7.376;2022-11-15T01:05:46;8.50;99.90
56374;DHT22;58212;47.034;7.376;2022-11-15T01:08:31;8.60;99.90
56374;DHT22;58212;47.034;7.376;2022-11-15T01:11:18;8.60;99.90
56374;DHT22;58212;47.034;7.376;2022-11-15T01:14:04;8.60;99.90
56374;DHT22;58212;47.034;7.376;2022-11-15T01:16:49;8.60;99.90
56374;DHT22;58212;47.034;7.376;2022-11-15T01:19:35;8.60;99.90
56374;DHT22;58212;47.034;7.376;2022-11-15T01:22:22;8.60;99.90
56374;DHT22;58212;47.034;7.376;2022-11-15T01:25:07;8.60;99.90
56374;DHT22;58212;47.034;7.376;2022-11-15T01:27:54;8.60;99.90
56374;DHT22;58212;47.034;7.376;2022-11-15T01:30:40;8.60;99.90
56374;DHT22;58212;47.034;7.376;2022-11-15T01:33:26;8.60;99.90
56374;DHT22;58212;47.034;7.376;2022-11-15T01:36:14;8.60;99.90
56374;DHT22;58212;47.034;7.376;2022-11-15T01:38:59;8.50;99.90
56374;DHT22;58212;47.034;7.376;2022-11-15T01:41:45;8.60;99.90
56374;DHT22;58212;47.034;7.376;2022-11-15T01:44:42;8.60;99.90
56374;DHT22;58212;47.034;7.376;2022-11-15T01:47:29;8.60;99.90
56374;DHT22;58212;47.034;7.376;2022-11-15T01:50:19;8.50;99.90
56374;DHT22;58212;47.034;7.376;2022-11-15T01:53:06;8.60;99.90
56374;DHT22;58212;47.034;7.376;2022-11-15T01:55:52;8.60;99.90
56374;DHT22;58212;47.034;7.376;2022-11-15T01:58:39;8.20;99.90
56374;DHT22;58212;47.034;7.376;2022-11-15T02:01:28;8.00;99.90
56374;DHT22;58212;47.034;7.376;2022-11-15T02:04:18;8.00;99.90
56374;DHT22;58212;47.034;7.376;2022-11-15T02:07:06;8.30;99.90
56374;DHT22;58212;47.034;7.376;2022-11-15T02:09:53;8.40;99.90
56374;DHT22;58212;47.034;7.376;2022-11-15T02:12:40;8.50;99.90
56374;DHT22;58212;47.034;7.376;2022-11-15T02:15:32;8.50;99.90
56374;DHT22;58212;47.034;7.376;2022-11-15T02:18:24;8.50;99.90
56374;DHT22;58212;47.034;7.376;2022-11-15T02:21:17;8.50;99.90
56374;DHT22;58212;47.034;7.376;2022-11-15T02:27:42;8.60;99.90
56374;DHT22;58212;47.034;7.376;2022-11-15T02:30:41;8.60;99.90
56374;DHT22;58212;47.034;7.376;2022-11-15T02:33:35;8.60;99.90
56374;DHT22;58212;47.034;7.376;2022-11-15T02:36:33;8.60;99.90
56374;DHT22;58212;47.034;7.376;2022-11-15T02:39:26;8.60;99.90
56374;DHT22;58212;47.034;7.376;2022-11-15T02:42:16;8.50;99.90
56374;DHT22;58212;47.034;7.376;2022-11-15T02:45:24;8.60;99.90
56374;DHT22;58212;47.034;7.376;2022-11-15T02:48:13;8.50;99.90
56374;DHT22;58212;47.034;7.376;2022-11-15T02:51:01;8.50;99.90
56374;DHT22;58212;47.034;7.376;2022-11-15T02:53:47;8.50;99.90
56374;DHT22;58212;47.034;7.376;2022-11-15T02:56:32;8.50;99.90
56374;DHT22;58212;47.034;7.376;2022-11-15T02:59:39;8.50;99.90
56374;DHT22;58212;47.034;7.376;2022-11-15T03:02:39;8.50;99.90
56374;DHT22;58212;47.034;7.376;2022-11-15T03:05:35;8.50;99.90
56374;DHT22;58212;47.034;7.376;2022-11-15T03:08:26;8.60;99.90
56374;DHT22;58212;47.034;7.376;2022-11-15T03:11:16;8.60;99.90
56374;DHT22;58212;47.034;7.376;2022-11-15T03:14:07;8.60;99.90
56374;DHT22;58212;47.034;7.376;2022-11-15T03:17:00;8.60;99.90
56374;DHT22;58212;47.034;7.376;2022-11-15T03:19:51;8.60;99.90
56374;DHT22;58212;47.034;7.376;2022-11-15T03:22:42;8.60;99.90
56374;DHT22;58212;47.034;7.376;2022-11-15T03:25:29;8.70;99.90
56374;DHT22;58212;47.034;7.376;2022-11-15T03:28:20;8.70;99.90
56374;DHT22;58212;47.034;7.376;2022-11-15T03:31:08;8.60;99.90
56374;DHT22;58212;47.034;7.376;2022-11-15T03:34:16;8.70;99.90
56374;DHT22;58212;47.034;7.376;2022-11-15T03:37:05;8.60;99.90
56374;DHT22;58212;47.034;7.376;2022-11-15T03:39:53;8.60;99.90
56374;DHT22;58212;47.034;7.376;2022-11-15T03:42:44;8.70;99.90
56374;DHT22;58212;47.034;7.376;2022-11-15T03:45:36;8.70;99.90
56374;DHT22;58212;47.034;7.376;2022-11-15T03:48:26;8.70;99.90
56374;DHT22;58212;47.034;7.376;2022-11-15T03:51:13;8.70;99.90
56374;DHT22;58212;47.034;7.376;2022-11-15T03:53:59;8.60;99.90
56374;DHT22;58212;47.034;7.376;2022-11-15T03:56:45;8.70;99.90
56374;DHT22;58212;47.034;7.376;2022-11-15T03:59:31;8.70;99.90
56374;DHT22;58212;47.034;7.376;2022-11-15T04:02:17;8.70;99.90
56374;DHT22;58212;47.034;7.376;2022-11-15T04:05:02;8.70;99.90
56374;DHT22;58212;47.034;7.376;2022-11-15T04:07:48;8.70;99.90
56374;DHT22;58212;47.034;7.376;2022-11-15T04:10:33;8.70;99.90
56374;DHT22;58212;47.034;7.376;2022-11-15T04:13:21;8.70;99.90
56374;DHT22;58212;47.034;7.376;2022-11-15T04:16:07;8.70;99.90
56374;DHT22;58212;47.034;7.376;2022-11-15T04:18:53;8.60;99.90
56374;DHT22;58212;47.034;7.376;2022-11-15T04:21:52;8.60;99.90
56374;DHT22;58212;47.034;7.376;2022-11-15T04:24:55;8.60;99.90
56374;DHT22;58212;47.034;7.376;2022-11-15T04:27:41;8.60;99.90
56374;DHT22;58212;47.034;7.376;2022-11-15T04:30:27;8.60;99.90
56374;DHT22;58212;47.034;7.376;2022-11-15T04:33:13;8.60;99.90
56374;DHT22;58212;47.034;7.376;2022-11-15T04:35:59;8.60;99.90
56374;DHT22;58212;47.034;7.376;2022-11-15T04:39:02;8.60;99.90
56374;DHT22;58212;47.034;7.376;2022-11-15T04:41:48;8.60;99.90
56374;DHT22;58212;47.034;7.376;2022-11-15T04:44:34;8.60;99.90
56374;DHT22;58212;47.034;7.376;2022-11-15T04:47:20;8.60;99.90
56374;DHT22;58212;47.034;7.376;2022-11-15T04:50:07;8.60;99.90
56374;DHT22;58212;47.034;7.376;2022-11-15T04:52:53;8.60;99.90
56374;DHT22;58212;47.034;7.376;2022-11-15T04:55:39;8.60;99.90
56374;DHT22;58212;47.034;7.376;2022-11-15T04:58:24;8.60;99.90
56374;DHT22;58212;47.034;7.376;2022-11-15T05:01:12;8.50;99.90
56374;DHT22;58212;47.034;7.376;2022-11-15T05:04:00;8.60;99.90
56374;DHT22;58212;47.034;7.376;2022-11-15T05:07:03;8.50;99.90
56374;DHT22;58212;47.034;7.376;2022-11-15T05:09:49;8.50;99.90
56374;DHT22;58212;47.034;7.376;2022-11-15T05:12:34;8.50;99.90
56374;DHT22;58212;47.034;7.376;2022-11-15T05:15:20;8.50;99.90
56374;DHT22;58212;47.034;7.376;2022-11-15T05:18:05;8.50;99.90
56374;DHT22;58212;47.034;7.376;2022-11-15T05:20:52;8.50;99.90
56374;DHT22;58212;47.034;7.376;2022-11-15T05:23:38;8.50;99.90
56374;DHT22;58212;47.034;7.376;2022-11-15T05:26:24;8.50;99.90
56374;DHT22;58212;47.034;7.376;2022-11-15T05:29:11;8.60;99.90
56374;DHT22;58212;47.034;7.376;2022-11-15T05:31:56;8.60;99.90
56374;DHT22;58212;47.034;7.376;2022-11-15T05:34:42;8.50;99.90
56374;DHT22;58212;47.034;7.376;2022-11-15T05:37:29;8.40;99.90
56374;DHT22;58212;47.034;7.376;2022-11-15T05:40:16;8.50;99.90
56374;DHT22;58212;47.034;7.376;2022-11-15T05:43:14;8.50;99.90
56374;DHT22;58212;47.034;7.376;2022-11-15T05:46:12;8.50;99.90
56374;DHT22;58212;47.034;7.376;2022-11-15T05:49:03;8.40;99.90
56374;DHT22;58212;47.034;7.376;2022-11-15T05:51:53;8.30;99.90
56374;DHT22;58212;47.034;7.376;2022-11-15T05:54:41;8.40;99.90
56374;DHT22;58212;47.034;7.376;2022-11-15T05:57:27;8.50;99.90
56374;DHT22;58212;47.034;7.376;2022-11-15T06:00:13;8.60;99.90
56374;DHT22;58212;47.034;7.376;2022-11-15T06:02:59;8.50;99.90
56374;DHT22;58212;47.034;7.376;2022-11-15T06:05:45;8.60;99.90
56374;DHT22;58212;47.034;7.376;2022-11-15T06:08:31;8.60;99.90
56374;DHT22;58212;47.034;7.376;2022-11-15T06:11:19;8.60;99.90
56374;DHT22;58212;47.034;7.376;2022-11-15T06:14:05;8.60;99.90
56374;DHT22;58212;47.034;7.376;2022-11-15T06:16:50;8.60;99.90
56374;DHT22;58212;47.034;7.376;2022-11-15T06:19:37;8.60;99.90
56374;DHT22;58212;47.034;7.376;2022-11-15T06:22:22;8.60;99.90
56374;DHT22;58212;47.034;7.376;2022-11-15T06:25:08;8.70;99.90
56374;DHT22;58212;47.034;7.376;2022-11-15T06:27:57;8.70;99.90
56374;DHT22;58212;47.034;7.376;2022-11-15T06:30:44;8.70;99.90
56374;DHT22;58212;47.034;7.376;2022-11-15T06:33:29;8.70;99.90
56374;DHT22;58212;47.034;7.376;2022-11-15T06:36:15;8.70;99.90
56374;DHT22;58212;47.034;7.376;2022-11-15T06:39:01;8.70;99.90
56374;DHT22;58212;47.034;7.376;2022-11-15T06:41:47;8.70;99.90
56374;DHT22;58212;47.034;7.376;2022-11-15T06:44:34;8.70;99.90
56374;DHT22;58212;47.034;7.376;2022-11-15T06:47:20;8.60;99.90
56374;DHT22;58212;47.034;7.376;2022-11-15T06:50:06;8.60;99.90
56374;DHT22;58212;47.034;7.376;2022-11-15T06:52:55;8.60;99.90
56374;DHT22;58212;47.034;7.376;2022-11-15T06:55:45;8.60;99.90
56374;DHT22;58212;47.034;7.376;2022-11-15T06:58:31;8.70;99.90
56374;DHT22;58212;47.034;7.376;2022-11-15T07:01:18;8.70;99.90
56374;DHT22;58212;47.034;7.376;2022-11-15T07:04:04;8.60;99.90
56374;DHT22;58212;47.034;7.376;2022-11-15T07:06:49;8.60;99.90
56374;DHT22;58212;47.034;7.376;2022-11-15T07:09:35;8.60;99.90
56374;DHT22;58212;47.034;7.376;2022-11-15T07:12:21;8.60;99.90
56374;DHT22;58212;47.034;7.376;2022-11-15T07:15:08;8.70;99.90
56374;DHT22;58212;47.034;7.376;2022-11-15T07:17:55;8.60;99.90
56374;DHT22;58212;47.034;7.376;2022-11-15T07:20:40;8.50;99.90
56374;DHT22;58212;47.034;7.376;2022-11-15T07:23:26;8.60;99.90
56374;DHT22;58212;47.034;7.376;2022-11-15T07:26:12;8.50;99.90
56374;DHT22;58212;47.034;7.376;2022-11-15T07:28:58;8.50;99.90
56374;DHT22;58212;47.034;7.376;2022-11-15T07:31:43;8.50;99.90
56374;DHT22;58212;47.034;7.376;2022-11-15T07:34:30;8.40;99.90
56374;DHT22;58212;47.034;7.376;2022-11-15T07:37:16;8.50;99.90
56374;DHT22;58212;47.034;7.376;2022-11-15T07:40:02;8.60;99.90
56374;DHT22;58212;47.034;7.376;2022-11-15T07:42:47;8.60;99.90
56374;DHT22;58212;47.034;7.376;2022-11-15T07:45:41;8.70;99.90
56374;DHT22;58212;47.034;7.376;2022-11-15T07:48:27;8.70;99.90
56374;DHT22;58212;47.034;7.376;2022-11-15T07:51:15;8.80;99.90
56374;DHT22;58212;47.034;7.376;2022-11-15T07:54:00;8.90;99.90
56374;DHT22;58212;47.034;7.376;2022-11-15T07:56:46;8.90;99.90
56374;DHT22;58212;47.034;7.376;2022-11-15T07:59:31;8.90;99.90
56374;DHT22;58212;47.034;7.376;2022-11-15T08:02:17;8.90;99.90
56374;DHT22;58212;47.034;7.376;2022-11-15T08:05:03;8.80;99.90
56374;DHT22;58212;47.034;7.376;2022-11-15T08:07:50;8.70;99.90
56374;DHT22;58212;47.034;7.376;2022-11-15T08:10:36;8.90;99.90
56374;DHT22;58212;47.034;7.376;2022-11-15T08:13:22;8.90;99.90
56374;DHT22;58212;47.034;7.376;2022-11-15T08:16:08;9.00;99.90
56374;DHT22;58212;47.034;7.376;2022-11-15T08:18:53;9.00;99.90
56374;DHT22;58212;47.034;7.376;2022-11-15T08:21:38;9.10;99.90
56374;DHT22;58212;47.034;7.376;2022-11-15T08:24:25;9.10;99.90
56374;DHT22;58212;47.034;7.376;2022-11-15T08:27:11;9.10;99.90
56374;DHT22;58212;47.034;7.376;2022-11-15T08:29:59;9.00;99.90
56374;DHT22;58212;47.034;7.376;2022-11-15T08:32:45;9.00;99.90
56374;DHT22;58212;47.034;7.376;2022-11-15T08:35:31;9.00;99.90
56374;DHT22;58212;47.034;7.376;2022-11-15T08:38:17;8.90;99.90
56374;DHT22;58212;47.034;7.376;2022-11-15T08:41:04;9.00;99.90
56374;DHT22;58212;47.034;7.376;2022-11-15T08:43:50;9.00;99.90
56374;DHT22;58212;47.034;7.376;2022-11-15T08:46:36;8.80;99.90
56374;DHT22;58212;47.034;7.376;2022-11-15T08:49:21;8.80;99.90
56374;DHT22;58212;47.034;7.376;2022-11-15T08:52:07;8.90;99.90
56374;DHT22;58212;47.034;7.376;2022-11-15T08:54:53;9.00;99.90
56374;DHT22;58212;47.034;7.376;2022-11-15T08:57:40;9.20;99.90
56374;DHT22;58212;47.034;7.376;2022-11-15T09:00:26;9.30;99.90
56374;DHT22;58212;47.034;7.376;2022-11-15T09:03:11;9.30;99.90
56374;DHT22;58212;47.034;7.376;2022-11-15T09:05:58;9.20;99.90
56374;DHT22;58212;47.034;7.376;2022-11-15T09:08:44;9.30;99.90
56374;DHT22;58212;47.034;7.376;2022-11-15T09:11:29;9.20;99.90
56374;DHT22;58212;47.034;7.376;2022-11-15T09:14:16;9.50;99.90
56374;DHT22;58212;47.034;7.376;2022-11-15T09:17:02;9.10;99.90
56374;DHT22;58212;47.034;7.376;2022-11-15T09:19:48;9.20;99.90
56374;DHT22;58212;47.034;7.376;2022-11-15T09:22:33;9.50;99.90
56374;DHT22;58212;47.034;7.376;2022-11-15T09:25:19;9.50;99.90
56374;DHT22;58212;47.034;7.376;2022-11-15T09:28:06;9.50;99.90
56374;DHT22;58212;47.034;7.376;2022-11-15T09:30:56;9.60;99.90
56374;DHT22;58212;47.034;7.376;2022-11-15T09:33:44;9.60;99.90
56374;DHT22;58212;47.034;7.376;2022-11-15T09:36:29;9.70;99.90
56374;DHT22;58212;47.034;7.376;2022-11-15T09:39:15;9.50;99.90
56374;DHT22;58212;47.034;7.376;2022-11-15T09:42:13;9.70;99.90
56374;DHT22;58212;47.034;7.376;2022-11-15T09:45:10;9.90;99.90
56374;DHT22;58212;47.034;7.376;2022-11-15T09:48:17;10.00;99.90
56374;DHT22;58212;47.034;7.376;2022-11-15T09:51:13;10.00;99.90
56374;DHT22;58212;47.034;7.376;2022-11-15T09:53:46;10.00;99.90
56374;DHT22;58212;47.034;7.376;2022-11-15T09:56:16;10.00;99.90
56374;DHT22;58212;47.034;7.376;2022-11-15T09:58:52;10.10;99.90
56374;DHT22;58212;47.034;7.376;2022-11-15T10:01:29;10.10;99.90
56374;DHT22;58212;47.034;7.376;2022-11-15T10:04:02;10.10;99.90
56374;DHT22;58212;47.034;7.376;2022-11-15T10:06:30;9.90;99.90
56374;DHT22;58212;47.034;7.376;2022-11-15T10:09:03;9.90;99.90
56374;DHT22;58212;47.034;7.376;2022-11-15T10:11:35;10.00;99.90
56374;DHT22;58212;47.034;7.376;2022-11-15T10:14:09;10.10;99.90
56374;DHT22;58212;47.034;7.376;2022-11-15T10:16:51;10.20;99.90
56374;DHT22;58212;47.034;7.376;2022-11-15T10:19:27;10.20;99.90
56374;DHT22;58212;47.034;7.376;2022-11-15T10:22:04;10.20;99.90
56374;DHT22;58212;47.034;7.376;2022-11-15T10:24:39;10.00;99.90
56374;DHT22;58212;47.034;7.376;2022-11-15T10:27:11;10.10;99.90
56374;DHT22;58212;47.034;7.376;2022-11-15T10:29:43;10.00;99.90
56374;DHT22;58212;47.034;7.376;2022-11-15T10:32:12;10.10;99.90
56374;DHT22;58212;47.034;7.376;2022-11-15T10:34:41;10.10;99.90
56374;DHT22;58212;47.034;7.376;2022-11-15T10:37:08;10.10;99.90
56374;DHT22;58212;47.034;7.376;2022-11-15T10:39:35;10.10;99.90
56374;DHT22;58212;47.034;7.376;2022-11-15T10:42:18;10.20;99.90
56374;DHT22;58212;47.034;7.376;2022-11-15T10:44:45;10.20;99.90
56374;DHT22;58212;47.034;7.376;2022-11-15T10:47:24;10.10;99.90
56374;DHT22;58212;47.034;7.376;2022-11-15T10:49:59;10.20;99.90
56374;DHT22;58212;47.034;7.376;2022-11-15T10:52:28;10.40;99.90
56374;DHT22;58212;47.034;7.376;2022-11-15T10:55:00;10.50;99.90
56374;DHT22;58212;47.034;7.376;2022-11-15T10:57:30;10.40;99.90
56374;DHT22;58212;47.034;7.376;2022-11-15T11:00:01;10.40;99.90
56374;DHT22;58212;47.034;7.376;2022-11-15T11:02:34;10.50;99.90
56374;DHT22;58212;47.034;7.376;2022-11-15T11:05:04;10.60;99.90
56374;DHT22;58212;47.034;7.376;2022-11-15T11:07:34;10.60;99.90
56374;DHT22;58212;47.034;7.376;2022-11-15T11:10:05;10.60;99.90
56374;DHT22;58212;47.034;7.376;2022-11-15T11:12:43;10.40;99.90
56374;DHT22;58212;47.034;7.376;2022-11-15T11:15:12;10.40;99.90
56374;DHT22;58212;47.034;7.376;2022-11-15T11:17:57;10.70;99.90
56374;DHT22;58212;47.034;7.376;2022-11-15T11:20:32;10.80;99.90
56374;DHT22;58212;47.034;7.376;2022-11-15T11:23:16;10.80;99.90
56374;DHT22;58212;47.034;7.376;2022-11-15T11:25:52;10.70;99.90
56374;DHT22;58212;47.034;7.376;2022-11-15T11:28:32;10.70;99.90
56374;DHT22;58212;47.034;7.376;2022-11-15T11:31:15;10.80;99.90
56374;DHT22;58212;47.034;7.376;2022-11-15T11:33:50;10.60;99.90
56374;DHT22;58212;47.034;7.376;2022-11-15T11:36:26;10.60;99.90
56374;DHT22;58212;47.034;7.376;2022-11-15T11:39:05;10.70;99.90
56374;DHT22;58212;47.034;7.376;2022-11-15T11:41:49;10.80;99.90
56374;DHT22;58212;47.034;7.376;2022-11-15T11:44:26;10.70;99.90
56374;DHT22;58212;47.034;7.376;2022-11-15T11:46:56;10.60;99.90
56374;DHT22;58212;47.034;7.376;2022-11-15T11:49:31;10.60;99.90
56374;DHT22;58212;47.034;7.376;2022-11-15T11:52:05;10.30;99.90
56374;DHT22;58212;47.034;7.376;2022-11-15T11:54:43;10.40;99.90
56374;DHT22;58212;47.034;7.376;2022-11-15T11:57:20;10.60;99.90
56374;DHT22;58212;47.034;7.376;2022-11-15T12:00:00;10.60;99.90
56374;DHT22;58212;47.034;7.376;2022-11-15T12:02:42;10.60;99.90
56374;DHT22;58212;47.034;7.376;2022-11-15T12:05:15;10.70;99.90
56374;DHT22;58212;47.034;7.376;2022-11-15T12:07:46;10.80;99.90
56374;DHT22;58212;47.034;7.376;2022-11-15T12:10:20;10.80;99.90
56374;DHT22;58212;47.034;7.376;2022-11-15T12:12:55;10.80;99.90
56374;DHT22;58212;47.034;7.376;2022-11-15T12:15:27;10.70;99.90
56374;DHT22;58212;47.034;7.376;2022-11-15T12:17:57;10.70;99.90
56374;DHT22;58212;47.034;7.376;2022-11-15T12:20:30;10.60;99.90
56374;DHT22;58212;47.034;7.376;2022-11-15T12:23:04;10.60;99.90
56374;DHT22;58212;47.034;7.376;2022-11-15T12:25:38;10.80;99.90
56374;DHT22;58212;47.034;7.376;2022-11-15T12:28:13;11.00;99.90
56374;DHT22;58212;47.034;7.376;2022-11-15T12:30:45;11.10;99.90
56374;DHT22;58212;47.034;7.376;2022-11-15T12:33:31;11.20;99.90
56374;DHT22;58212;47.034;7.376;2022-11-15T12:36:00;11.10;99.90
56374;DHT22;58212;47.034;7.376;2022-11-15T12:38:53;11.10;99.90
56374;DHT22;58212;47.034;7.376;2022-11-15T12:41:24;11.10;99.90
56374;DHT22;58212;47.034;7.376;2022-11-15T12:43:52;10.90;99.90
56374;DHT22;58212;47.034;7.376;2022-11-15T12:49:09;10.80;99.90
56374;DHT22;58212;47.034;7.376;2022-11-15T12:52:04;11.00;99.90
56374;DHT22;58212;47.034;7.376;2022-11-15T12:55:02;11.10;99.90
56374;DHT22;58212;47.034;7.376;2022-11-15T12:57:50;11.00;99.90
56374;DHT22;58212;47.034;7.376;2022-11-15T13:00:42;10.90;99.90
56374;DHT22;58212;47.034;7.376;2022-11-15T13:03:31;11.10;99.90
56374;DHT22;58212;47.034;7.376;2022-11-15T13:06:39;11.20;99.90
56374;DHT22;58212;47.034;7.376;2022-11-15T13:09:01;11.20;99.90
56374;DHT22;58212;47.034;7.376;2022-11-15T13:11:48;11.10;99.90
56374;DHT22;58212;47.034;7.376;2022-11-15T13:14:47;11.20;99.90
56374;DHT22;58212;47.034;7.376;2022-11-15T13:17:27;11.30;99.90
56374;DHT22;58212;47.034;7.376;2022-11-15T13:20:00;11.30;99.90
56374;DHT22;58212;47.034;7.376;2022-11-15T13:22:27;11.20;99.90
56374;DHT22;58212;47.034;7.376;2022-11-15T13:25:21;11.20;99.90
56374;DHT22;58212;47.034;7.376;2022-11-15T13:27:52;11.20;99.90
56374;DHT22;58212;47.034;7.376;2022-11-15T13:30:22;11.30;99.90
56374;DHT22;58212;47.034;7.376;2022-11-15T13:32:51;11.00;99.90
56374;DHT22;58212;47.034;7.376;2022-11-15T13:35:21;11.00;99.90
56374;DHT22;58212;47.034;7.376;2022-11-15T13:37:49;11.20;99.90
56374;DHT22;58212;47.034;7.376;2022-11-15T13:40:25;11.30;99.90
56374;DHT22;58212;47.034;7.376;2022-11-15T13:42:53;11.20;99.90
56374;DHT22;58212;47.034;7.376;2022-11-15T13:45:20;11.10;99.90
56374;DHT22;58212;47.034;7.376;2022-11-15T13:47:53;11.20;99.90
56374;DHT22;58212;47.034;7.376;2022-11-15T13:50:23;11.20;99.90
56374;DHT22;58212;47.034;7.376;2022-11-15T13:52:52;11.20;99.90
56374;DHT22;58212;47.034;7.376;2022-11-15T13:55:22;11.20;99.90
56374;DHT22;58212;47.034;7.376;2022-11-15T13:57:54;11.10;99.90
56374;DHT22;58212;47.034;7.376;2022-11-15T14:00:32;11.00;99.90
56374;DHT22;58212;47.034;7.376;2022-11-15T14:03:07;11.00;99.90
56374;DHT22;58212;47.034;7.376;2022-11-15T14:05:34;10.80;99.90
56374;DHT22;58212;47.034;7.376;2022-11-15T14:08:05;10.90;99.90
56374;DHT22;58212;47.034;7.376;2022-11-15T14:10:41;11.00;99.90
56374;DHT22;58212;47.034;7.376;2022-11-15T14:13:26;11.10;99.90
56374;DHT22;58212;47.034;7.376;2022-11-15T14:15:53;11.20;99.90
56374;DHT22;58212;47.034;7.376;2022-11-15T14:18:39;11.20;99.90
56374;DHT22;58212;47.034;7.376;2022-11-15T14:21:07;11.20;99.90
56374;DHT22;58212;47.034;7.376;2022-11-15T14:23:37;11.10;99.90
56374;DHT22;58212;47.034;7.376;2022-11-15T14:26:05;11.20;99.90
56374;DHT22;58212;47.034;7.376;2022-11-15T14:28:34;11.20;99.90
56374;DHT22;58212;47.034;7.376;2022-11-15T14:31:10;11.10;99.90
56374;DHT22;58212;47.034;7.376;2022-11-15T14:33:39;11.00;99.90
56374;DHT22;58212;47.034;7.376;2022-11-15T14:36:11;11.10;99.90
56374;DHT22;58212;47.034;7.376;2022-11-15T14:38:39;11.10;99.90
56374;DHT22;58212;47.034;7.376;2022-11-15T14:41:18;11.10;99.90
56374;DHT22;58212;47.034;7.376;2022-11-15T14:43:45;11.10;99.90
56374;DHT22;58212;47.034;7.376;2022-11-15T14:46:13;11.10;99.90
56374;DHT22;58212;47.034;7.376;2022-11-15T14:48:40;11.10;99.90
56374;DHT22;58212;47.034;7.376;2022-11-15T14:51:12;11.10;99.90
56374;DHT22;58212;47.034;7.376;2022-11-15T14:53:42;11.00;99.90
56374;DHT22;58212;47.034;7.376;2022-11-15T14:56:09;11.10;99.90
56374;DHT22;58212;47.034;7.376;2022-11-15T14:58:38;11.10;99.90
56374;DHT22;58212;47.034;7.376;2022-11-15T15:01:12;11.00;99.90
56374;DHT22;58212;47.034;7.376;2022-11-15T15:03:39;10.90;99.90
56374;DHT22;58212;47.034;7.376;2022-11-15T15:06:06;10.90;99.90
56374;DHT22;58212;47.034;7.376;2022-11-15T15:08:35;10.80;99.90
56374;DHT22;58212;47.034;7.376;2022-11-15T15:11:01;10.80;99.90
56374;DHT22;58212;47.034;7.376;2022-11-15T15:13:29;10.80;99.90
56374;DHT22;58212;47.034;7.376;2022-11-15T15:15:57;10.60;99.90
56374;DHT22;58212;47.034;7.376;2022-11-15T15:18:24;10.70;99.90
56374;DHT22;58212;47.034;7.376;2022-11-15T15:20:55;10.70;99.90
56374;DHT22;58212;47.034;7.376;2022-11-15T15:23:25;10.70;99.90
56374;DHT22;58212;47.034;7.376;2022-11-15T15:25:54;10.80;99.90
56374;DHT22;58212;47.034;7.376;2022-11-15T15:28:25;10.80;99.90
56374;DHT22;58212;47.034;7.376;2022-11-15T15:30:54;10.80;99.90
56374;DHT22;58212;47.034;7.376;2022-11-15T15:33:22;10.80;99.90
56374;DHT22;58212;47.034;7.376;2022-11-15T15:35:49;10.70;99.90
56374;DHT22;58212;47.034;7.376;2022-11-15T15:38:16;10.70;99.90
56374;DHT22;58212;47.034;7.376;2022-11-15T15:40:43;10.60;99.90
56374;DHT22;58212;47.034;7.376;2022-11-15T15:43:10;10.60;99.90
56374;DHT22;58212;47.034;7.376;2022-11-15T15:45:38;10.60;99.90
56374;DHT22;58212;47.034;7.376;2022-11-15T15:48:10;10.60;99.90
56374;DHT22;58212;47.034;7.376;2022-11-15T15:50:41;10.60;99.90
56374;DHT22;58212;47.034;7.376;2022-11-15T15:53:10;10.60;99.90
56374;DHT22;58212;47.034;7.376;2022-11-15T15:55:37;10.60;99.90
56374;DHT22;58212;47.034;7.376;2022-11-15T15:58:04;10.60;99.90
56374;DHT22;58212;47.034;7.376;2022-11-15T16:00:32;10.60;99.90
56374;DHT22;58212;47.034;7.376;2022-11-15T16:02:59;10.50;99.90
56374;DHT22;58212;47.034;7.376;2022-11-15T16:05:29;10.50;99.90
56374;DHT22;58212;47.034;7.376;2022-11-15T16:07:57;10.50;99.90
56374;DHT22;58212;47.034;7.376;2022-11-15T16:10:26;10.50;99.90
56374;DHT22;58212;47.034;7.376;2022-11-15T16:12:54;10.40;99.90
56374;DHT22;58212;47.034;7.376;2022-11-15T16:15:23;10.40;99.90
56374;DHT22;58212;47.034;7.376;2022-11-15T16:17:52;10.30;99.90
56374;DHT22;58212;47.034;7.376;2022-11-15T16:20:32;10.40;99.90
56374;DHT22;58212;47.034;7.376;2022-11-15T16:23:03;10.30;99.90
56374;DHT22;58212;47.034;7.376;2022-11-15T16:25:33;10.30;99.90
56374;DHT22;58212;47.034;7.376;2022-11-15T16:28:01;10.20;99.90
56374;DHT22;58212;47.034;7.376;2022-11-15T16:30:28;10.30;99.90
56374;DHT22;58212;47.034;7.376;2022-11-15T16:32:55;10.30;99.90
56374;DHT22;58212;47.034;7.376;2022-11-15T16:35:22;10.30;99.90
56374;DHT22;58212;47.034;7.376;2022-11-15T16:37:50;10.30;99.90
56374;DHT22;58212;47.034;7.376;2022-11-15T16:40:26;10.30;99.90
56374;DHT22;58212;47.034;7.376;2022-11-15T16:42:53;10.30;99.90
56374;DHT22;58212;47.034;7.376;2022-11-15T16:45:22;10.30;99.90
56374;DHT22;58212;47.034;7.376;2022-11-15T16:47:49;10.40;99.90
56374;DHT22;58212;47.034;7.376;2022-11-15T16:50:22;10.30;99.90
56374;DHT22;58212;47.034;7.376;2022-11-15T16:52:51;10.30;99.90
56374;DHT22;58212;47.034;7.376;2022-11-15T16:55:19;10.30;99.90
56374;DHT22;58212;47.034;7.376;2022-11-15T16:57:47;10.30;99.90
56374;DHT22;58212;47.034;7.376;2022-11-15T17:00:15;10.30;99.90
56374;DHT22;58212;47.034;7.376;2022-11-15T17:02:44;10.20;99.90
56374;DHT22;58212;47.034;7.376;2022-11-15T17:05:15;10.20;99.90
56374;DHT22;58212;47.034;7.376;2022-11-15T17:07:42;10.10;99.90
56374;DHT22;58212;47.034;7.376;2022-11-15T17:10:11;10.00;99.90
56374;DHT22;58212;47.034;7.376;2022-11-15T17:12:38;10.00;99.90
56374;DHT22;58212;47.034;7.376;2022-11-15T17:15:08;10.00;99.90